Array
(
    [0] => p
    [1] => TAF-100
)
- বাংলা English

Monsoon is less active over Bangladesh and weak over North Bay.

TAF


TAF VGHS 242300Z 2500/2606 20008KT 3500HZ SCT012 BKN100
TEMPO 2500/2518 18025KT 2000RA/TSRA BKN007 FEW025CB BKN090
BECMG 2518/2520 18007KT 4000HZ SCT015 BKN100=

TAF VGEG 241700Z 2418/2524 17005KT 5000 SCT015 BKN100
  BECMG 2422/2424 15005KT 4500 SCT015 BKN100
  TEMPO 2501/2506 17015KT 2000 RA/TSRA SCT008 FEW025CB BKN090
  BECMG 2507/2509 16008KT 5000 FEW016 SCT100
  BECMG 2514/2516 21008KT 5000 SCT015 BKN100
  BECMG 2520/2522 16005KT 5000 SCT015 BKN100=

TAF VGSY 241000Z 2412/2518 24005KT 4000 HZ SCT015 BKN100
BECMG 2423/2501 06004KT 3000 HZ SCT012 BKN100
BECMG 2503/2505 09004KT 3500 HZ SCT015 BKN100
TEMPO 2412/2506 28020KT 1500 RA/TSRA BKN007 FEW025CB OVC080=